Enter the Airport ICAO Code

Search by Airport or City

Current Weather

SARE | Resistencia International Airport

Resistencia, Chaco, Argentina

Last Update 18 Minutes Ago

Clear Sky

Temperature of 19 ēC

Light Winds from NorthWest

Temperature

19 ēC

Dew Point Temperature

19 ēC

Relative Humidity

100 %

Wind Direction

NorthWest (300ē, Without Significant Variations)

Wind Velocity

2 km/h (01 kt)

Gusts

None

Visibility

No Significant Reductions

Sea Level Pressure

1009 hPa (Hectopascals)

Layers of Clouds

None

METAR SARE 160700Z 30001KT CAVOK 19/19 Q1009

Weather Forecast

SARE | Resistencia International Airport

Resistencia, Chaco, Argentina

Forecast valid for the next 23 Hours

From now on it is expected:

Clear Sky

Light to Moderate Winds from West

In 11 to 13 hours it is expected the begining of:

Moderate Winds from South

Maximum Temperature

29 ēC in 11 Hours

Minimum Temperature

17 ēC in 2 Hours

TAF SARE 160500Z 1606/1706 26005KT CAVOK TX29/1618Z TN17/1609Z PROB30 1611/1617 VRB02KT 9999 BKN030 BECMG 1618/1620 18010KT